<?xml version="1.0" encoding="utf-8"?>
<gpx xmlns:xsi="http://www.w3.org/2001/XMLSchema-instance" xmlns:xsd="http://www.w3.org/2001/XMLSchema" version="1.1" creator="Shapelink.com" xmlns="http://www.topografix.com/GPX/1/1" xmlns:gpxtpx="http://www.garmin.com/xmlschemas/TrackPointExtension/v1">
  <metadata>
    <name>Cycling 28.30 km, 2020-08-01</name>
    <desc></desc>
    <author><name>Marian Moron</name></author> 
    <time>2020-08-01T14:05:50Z</time>
  </metadata>
  <trk>
    <name>Cycling 28.30 km, 2020-08-01</name>
    <trkseg>
      <trkpt lat="51.229307117368" lon="4.449078740943">
        <ele>0</ele>
        <time>2020-08-01T14:05:50Z</time>
      </trkpt>
      <trkpt lat="51.229148699458" lon="4.449212348429">
        <ele>13</ele>
        <time>2020-08-01T14:11:12Z</time>
      </trkpt>
      <trkpt lat="51.229020875483" lon="4.448226972265">
        <ele>12.2</ele>
        <time>2020-08-01T14:11:30Z</time>
      </trkpt>
      <trkpt lat="51.228880143382" lon="4.447997894938">
        <ele>12.2</ele>
        <time>2020-08-01T14:11:38Z</time>
      </trkpt>
      <trkpt lat="51.228912413697" lon="4.447982053147">
        <ele>12.2</ele>
        <time>2020-08-01T14:11:40Z</time>
      </trkpt>
      <trkpt lat="51.228899337933" lon="4.448038295696">
        <ele>12.2</ele>
        <time>2020-08-01T14:11:43Z</time>
      </trkpt>
      <trkpt lat="51.228848208343" lon="4.44800862377">
        <ele>12</ele>
        <time>2020-08-01T14:11:47Z</time>
      </trkpt>
      <trkpt lat="51.228473202137" lon="4.447336143933">
        <ele>9.6</ele>
        <time>2020-08-01T14:12:07Z</time>
      </trkpt>
      <trkpt lat="51.228432466103" lon="4.447256934978">
        <ele>9.2</ele>
        <time>2020-08-01T14:12:10Z</time>
      </trkpt>
      <trkpt lat="51.227949501025" lon="4.447684747154">
        <ele>7</ele>
        <time>2020-08-01T14:12:27Z</time>
      </trkpt>
      <trkpt lat="51.227514396596" lon="4.44823661145">
        <ele>5.2</ele>
        <time>2020-08-01T14:12:45Z</time>
      </trkpt>
      <trkpt lat="51.227130505576" lon="4.448904732699">
        <ele>4.2</ele>
        <time>2020-08-01T14:13:02Z</time>
      </trkpt>
      <trkpt lat="51.227015673546" lon="4.449357187661">
        <ele>5.6</ele>
        <time>2020-08-01T14:13:14Z</time>
      </trkpt>
      <trkpt lat="51.226995389348" lon="4.449431116019">
        <ele>6</ele>
        <time>2020-08-01T14:13:21Z</time>
      </trkpt>
      <trkpt lat="51.226553579399" lon="4.449808972071">
        <ele>8.8</ele>
        <time>2020-08-01T14:13:49Z</time>
      </trkpt>
      <trkpt lat="51.226480321593" lon="4.44983252521">
        <ele>9.6</ele>
        <time>2020-08-01T14:13:52Z</time>
      </trkpt>
      <trkpt lat="51.226442603043" lon="4.449791537719">
        <ele>10</ele>
        <time>2020-08-01T14:13:54Z</time>
      </trkpt>
      <trkpt lat="51.226582161678" lon="4.449340423861">
        <ele>11</ele>
        <time>2020-08-01T14:14:09Z</time>
      </trkpt>
      <trkpt lat="51.226326849004" lon="4.448893417134">
        <ele>10</ele>
        <time>2020-08-01T14:14:23Z</time>
      </trkpt>
      <trkpt lat="51.225964415648" lon="4.449517784865">
        <ele>7.6</ele>
        <time>2020-08-01T14:14:44Z</time>
      </trkpt>
      <trkpt lat="51.225448090608" lon="4.449745185812">
        <ele>6.2</ele>
        <time>2020-08-01T14:15:01Z</time>
      </trkpt>
      <trkpt lat="51.22494668535" lon="4.450020615046">
        <ele>4.6</ele>
        <time>2020-08-01T14:15:17Z</time>
      </trkpt>
      <trkpt lat="51.224547120177" lon="4.450623022199">
        <ele>3.4</ele>
        <time>2020-08-01T14:15:29Z</time>
      </trkpt>
      <trkpt lat="51.224148477013" lon="4.451234733261">
        <ele>3.4</ele>
        <time>2020-08-01T14:15:42Z</time>
      </trkpt>
      <trkpt lat="51.223998524822" lon="4.451373537525">
        <ele>3</ele>
        <time>2020-08-01T14:15:46Z</time>
      </trkpt>
      <trkpt lat="51.22391738803" lon="4.451403041813">
        <ele>2.8</ele>
        <time>2020-08-01T14:15:48Z</time>
      </trkpt>
      <trkpt lat="51.223363763535" lon="4.451238924211">
        <ele>1.8</ele>
        <time>2020-08-01T14:16:03Z</time>
      </trkpt>
      <trkpt lat="51.222824975003" lon="4.45106298813">
        <ele>1.4</ele>
        <time>2020-08-01T14:16:19Z</time>
      </trkpt>
      <trkpt lat="51.222287276118" lon="4.451151500994">
        <ele>0.2</ele>
        <time>2020-08-01T14:16:33Z</time>
      </trkpt>
      <trkpt lat="51.221783523928" lon="4.451477473085">
        <ele>0</ele>
        <time>2020-08-01T14:16:48Z</time>
      </trkpt>
      <trkpt lat="51.221236102039" lon="4.451651648967">
        <ele>0</ele>
        <time>2020-08-01T14:17:05Z</time>
      </trkpt>
      <trkpt lat="51.220675772024" lon="4.451753069957">
        <ele>0</ele>
        <time>2020-08-01T14:17:19Z</time>
      </trkpt>
      <trkpt lat="51.220119716778" lon="4.451890197841">
        <ele>0</ele>
        <time>2020-08-01T14:17:33Z</time>
      </trkpt>
      <trkpt lat="51.2195780784" lon="4.451983572207">
        <ele>0.4</ele>
        <time>2020-08-01T14:17:46Z</time>
      </trkpt>
      <trkpt lat="51.219106428887" lon="4.452063284076">
        <ele>1.8</ele>
        <time>2020-08-01T14:17:57Z</time>
      </trkpt>
      <trkpt lat="51.219030824149" lon="4.452001006559">
        <ele>2</ele>
        <time>2020-08-01T14:17:59Z</time>
      </trkpt>
      <trkpt lat="51.218885314365" lon="4.451787100471">
        <ele>1.6</ele>
        <time>2020-08-01T14:18:03Z</time>
      </trkpt>
      <trkpt lat="51.218785821212" lon="4.451726080239">
        <ele>1.2</ele>
        <time>2020-08-01T14:18:05Z</time>
      </trkpt>
      <trkpt lat="51.218472338152" lon="4.451731360836">
        <ele>1</ele>
        <time>2020-08-01T14:18:11Z</time>
      </trkpt>
      <trkpt lat="51.218334288259" lon="4.451839319708">
        <ele>0.4</ele>
        <time>2020-08-01T14:18:14Z</time>
      </trkpt>
      <trkpt lat="51.218255079304" lon="4.452708019824">
        <ele>0</ele>
        <time>2020-08-01T14:18:31Z</time>
      </trkpt>
      <trkpt lat="51.218256671865" lon="4.452721514683">
        <ele>0</ele>
        <time>2020-08-01T14:18:38Z</time>
      </trkpt>
      <trkpt lat="51.218254241114" lon="4.452878675308">
        <ele>2.2</ele>
        <time>2020-08-01T14:19:02Z</time>
      </trkpt>
      <trkpt lat="51.218198501479" lon="4.453759529179">
        <ele>0</ele>
        <time>2020-08-01T14:19:19Z</time>
      </trkpt>
      <trkpt lat="51.218155921427" lon="4.454645076914">
        <ele>0</ele>
        <time>2020-08-01T14:19:34Z</time>
      </trkpt>
      <trkpt lat="51.218117448506" lon="4.455504724578">
        <ele>0</ele>
        <time>2020-08-01T14:19:48Z</time>
      </trkpt>
      <trkpt lat="51.218097415765" lon="4.456368814649">
        <ele>0</ele>
        <time>2020-08-01T14:20:02Z</time>
      </trkpt>
      <trkpt lat="51.217985098305" lon="4.457203484251">
        <ele>0</ele>
        <time>2020-08-01T14:20:16Z</time>
      </trkpt>
      <trkpt lat="51.217630041021" lon="4.457906558023">
        <ele>0</ele>
        <time>2020-08-01T14:20:29Z</time>
      </trkpt>
      <trkpt lat="51.217276157203" lon="4.458595298746">
        <ele>0</ele>
        <time>2020-08-01T14:20:43Z</time>
      </trkpt>
      <trkpt lat="51.216911879829" lon="4.459279094148">
        <ele>0</ele>
        <time>2020-08-01T14:20:56Z</time>
      </trkpt>
      <trkpt lat="51.216574592173" lon="4.459983089929">
        <ele>0</ele>
        <time>2020-08-01T14:21:10Z</time>
      </trkpt>
      <trkpt lat="51.216259851828" lon="4.460721032405">
        <ele>0</ele>
        <time>2020-08-01T14:21:23Z</time>
      </trkpt>
      <trkpt lat="51.215942177818" lon="4.461416562467">
        <ele>0</ele>
        <time>2020-08-01T14:21:37Z</time>
      </trkpt>
      <trkpt lat="51.215881492862" lon="4.461524688977">
        <ele>0</ele>
        <time>2020-08-01T14:21:41Z</time>
      </trkpt>
      <trkpt lat="51.215866321623" lon="4.461521839131">
        <ele>0</ele>
        <time>2020-08-01T14:21:43Z</time>
      </trkpt>
      <trkpt lat="51.215800020794" lon="4.461768518448">
        <ele>2.6</ele>
        <time>2020-08-01T14:23:32Z</time>
      </trkpt>
      <trkpt lat="51.215448064813" lon="4.462451810936">
        <ele>0</ele>
        <time>2020-08-01T14:23:54Z</time>
      </trkpt>
      <trkpt lat="51.215090241502" lon="4.463107107878">
        <ele>0</ele>
        <time>2020-08-01T14:24:10Z</time>
      </trkpt>
      <trkpt lat="51.214563858182" lon="4.463306178003">
        <ele>0</ele>
        <time>2020-08-01T14:24:25Z</time>
      </trkpt>
      <trkpt lat="51.214359675098" lon="4.463340292336">
        <ele>0</ele>
        <time>2020-08-01T14:24:30Z</time>
      </trkpt>
      <trkpt lat="51.213787610423" lon="4.463433163788">
        <ele>0</ele>
        <time>2020-08-01T14:24:44Z</time>
      </trkpt>
      <trkpt lat="51.21321956906" lon="4.463588564214">
        <ele>0</ele>
        <time>2020-08-01T14:24:58Z</time>
      </trkpt>
      <trkpt lat="51.212652784982" lon="4.463733235808">
        <ele>0</ele>
        <time>2020-08-01T14:25:13Z</time>
      </trkpt>
      <trkpt lat="51.212105363093" lon="4.46386131124">
        <ele>0</ele>
        <time>2020-08-01T14:25:27Z</time>
      </trkpt>
      <trkpt lat="51.211554588444" lon="4.463944627326">
        <ele>0</ele>
        <time>2020-08-01T14:25:41Z</time>
      </trkpt>
      <trkpt lat="51.210994006972" lon="4.463796183877">
        <ele>0</ele>
        <time>2020-08-01T14:25:57Z</time>
      </trkpt>
      <trkpt lat="51.210434096052" lon="4.463662073477">
        <ele>0</ele>
        <time>2020-08-01T14:26:14Z</time>
      </trkpt>
      <trkpt lat="51.209894217873" lon="4.463443473525">
        <ele>4.2</ele>
        <time>2020-08-01T14:26:33Z</time>
      </trkpt>
      <trkpt lat="51.209794389444" lon="4.463403491862">
        <ele>5.8</ele>
        <time>2020-08-01T14:26:39Z</time>
      </trkpt>
      <trkpt lat="51.209600180821" lon="4.463657966346">
        <ele>17.6</ele>
        <time>2020-08-01T14:27:49Z</time>
      </trkpt>
      <trkpt lat="51.209601773382" lon="4.46365344012">
        <ele>15.4</ele>
        <time>2020-08-01T14:28:16Z</time>
      </trkpt>
      <trkpt lat="51.209598755898" lon="4.463672047938">
        <ele>15.2</ele>
        <time>2020-08-01T14:28:17Z</time>
      </trkpt>
      <trkpt lat="51.2088911559" lon="4.470879057015">
        <ele>0.2</ele>
        <time>2020-08-01T14:30:50Z</time>
      </trkpt>
      <trkpt lat="51.208907249148" lon="4.471762006361">
        <ele>1.6</ele>
        <time>2020-08-01T14:31:05Z</time>
      </trkpt>
      <trkpt lat="51.208853856445" lon="4.47260782389">
        <ele>0</ele>
        <time>2020-08-01T14:31:22Z</time>
      </trkpt>
      <trkpt lat="51.208086325862" lon="4.478267618046">
        <ele>0</ele>
        <time>2020-08-01T14:33:39Z</time>
      </trkpt>
      <trkpt lat="51.207738057917" lon="4.47897052418">
        <ele>1.2</ele>
        <time>2020-08-01T14:33:54Z</time>
      </trkpt>
      <trkpt lat="51.207272275734" lon="4.479481484804">
        <ele>0</ele>
        <time>2020-08-01T14:34:09Z</time>
      </trkpt>
      <trkpt lat="51.206808505207" lon="4.480003844812">
        <ele>0</ele>
        <time>2020-08-01T14:34:24Z</time>
      </trkpt>
      <trkpt lat="51.206355295874" lon="4.480557050212">
        <ele>0</ele>
        <time>2020-08-01T14:34:39Z</time>
      </trkpt>
      <trkpt lat="51.205927818974" lon="4.481083182075">
        <ele>0</ele>
        <time>2020-08-01T14:34:53Z</time>
      </trkpt>
      <trkpt lat="51.205475280193" lon="4.481611325594">
        <ele>0</ele>
        <time>2020-08-01T14:35:08Z</time>
      </trkpt>
      <trkpt lat="51.205021065032" lon="4.482135781077">
        <ele>0</ele>
        <time>2020-08-01T14:35:23Z</time>
      </trkpt>
      <trkpt lat="51.204571040821" lon="4.482637437792">
        <ele>0</ele>
        <time>2020-08-01T14:35:39Z</time>
      </trkpt>
      <trkpt lat="51.204142558093" lon="4.483193073943">
        <ele>0</ele>
        <time>2020-08-01T14:35:57Z</time>
      </trkpt>
      <trkpt lat="51.203694629357" lon="4.483692719002">
        <ele>0</ele>
        <time>2020-08-01T14:36:14Z</time>
      </trkpt>
      <trkpt lat="51.203297746392" lon="4.483984325303">
        <ele>0</ele>
        <time>2020-08-01T14:36:31Z</time>
      </trkpt>
      <trkpt lat="51.203181154163" lon="4.483933279532">
        <ele>0</ele>
        <time>2020-08-01T14:36:35Z</time>
      </trkpt>
      <trkpt lat="51.202866665275" lon="4.484611961975">
        <ele>0</ele>
        <time>2020-08-01T14:36:55Z</time>
      </trkpt>
      <trkpt lat="51.20243206376" lon="4.485172543447">
        <ele>1</ele>
        <time>2020-08-01T14:37:11Z</time>
      </trkpt>
      <trkpt lat="51.202044736161" lon="4.485704207364">
        <ele>2.8</ele>
        <time>2020-08-01T14:37:31Z</time>
      </trkpt>
      <trkpt lat="51.20163159231" lon="4.486304099947">
        <ele>2.8</ele>
        <time>2020-08-01T14:37:47Z</time>
      </trkpt>
      <trkpt lat="51.201271673524" lon="4.486962330554">
        <ele>0.2</ele>
        <time>2020-08-01T14:38:05Z</time>
      </trkpt>
      <trkpt lat="51.200922315932" lon="4.487667667439">
        <ele>0</ele>
        <time>2020-08-01T14:38:23Z</time>
      </trkpt>
      <trkpt lat="51.200558625291" lon="4.488306535857">
        <ele>2</ele>
        <time>2020-08-01T14:38:40Z</time>
      </trkpt>
      <trkpt lat="51.200191665709" lon="4.488978931875">
        <ele>0</ele>
        <time>2020-08-01T14:38:57Z</time>
      </trkpt>
      <trkpt lat="51.199821185729" lon="4.489677395602">
        <ele>0</ele>
        <time>2020-08-01T14:39:14Z</time>
      </trkpt>
      <trkpt lat="51.199458333278" lon="4.490357670606">
        <ele>3</ele>
        <time>2020-08-01T14:39:29Z</time>
      </trkpt>
      <trkpt lat="51.19910193489" lon="4.491040711637">
        <ele>1.8</ele>
        <time>2020-08-01T14:39:44Z</time>
      </trkpt>
      <trkpt lat="51.198806472915" lon="4.491777815923">
        <ele>0.2</ele>
        <time>2020-08-01T14:40:01Z</time>
      </trkpt>
      <trkpt lat="51.198493157493" lon="4.492529337077">
        <ele>0.2</ele>
        <time>2020-08-01T14:40:18Z</time>
      </trkpt>
      <trkpt lat="51.198180680261" lon="4.493295945651">
        <ele>5.8</ele>
        <time>2020-08-01T14:40:33Z</time>
      </trkpt>
      <trkpt lat="51.197916566592" lon="4.494045455149">
        <ele>6.6</ele>
        <time>2020-08-01T14:40:47Z</time>
      </trkpt>
      <trkpt lat="51.197557737453" lon="4.494711313285">
        <ele>5.8</ele>
        <time>2020-08-01T14:41:02Z</time>
      </trkpt>
      <trkpt lat="51.197199327409" lon="4.495398126171">
        <ele>3.8</ele>
        <time>2020-08-01T14:41:17Z</time>
      </trkpt>
      <trkpt lat="51.196880563752" lon="4.496120478313">
        <ele>4.2</ele>
        <time>2020-08-01T14:41:31Z</time>
      </trkpt>
      <trkpt lat="51.196536905852" lon="4.497105267744">
        <ele>5.6</ele>
        <time>2020-08-01T14:41:50Z</time>
      </trkpt>
      <trkpt lat="51.196277569866" lon="4.497882688969">
        <ele>4.4</ele>
        <time>2020-08-01T14:42:04Z</time>
      </trkpt>
      <trkpt lat="51.196051007109" lon="4.498682741324">
        <ele>6</ele>
        <time>2020-08-01T14:42:19Z</time>
      </trkpt>
      <trkpt lat="51.195845818197" lon="4.499533252717">
        <ele>5.4</ele>
        <time>2020-08-01T14:42:34Z</time>
      </trkpt>
      <trkpt lat="51.195706259562" lon="4.500385524309">
        <ele>3</ele>
        <time>2020-08-01T14:42:48Z</time>
      </trkpt>
      <trkpt lat="51.19563769562" lon="4.501267886922">
        <ele>1</ele>
        <time>2020-08-01T14:43:03Z</time>
      </trkpt>
      <trkpt lat="51.195613891024" lon="4.502150249535">
        <ele>1.8</ele>
        <time>2020-08-01T14:43:18Z</time>
      </trkpt>
      <trkpt lat="51.195645742244" lon="4.503010567751">
        <ele>1.4</ele>
        <time>2020-08-01T14:43:32Z</time>
      </trkpt>
      <trkpt lat="51.195723861552" lon="4.503865689189">
        <ele>1.8</ele>
        <time>2020-08-01T14:43:46Z</time>
      </trkpt>
      <trkpt lat="51.195800472118" lon="4.504743022662">
        <ele>1.6</ele>
        <time>2020-08-01T14:44:00Z</time>
      </trkpt>
      <trkpt lat="51.195818828479" lon="4.504939913493">
        <ele>1.6</ele>
        <time>2020-08-01T14:44:03Z</time>
      </trkpt>
      <trkpt lat="51.195901138737" lon="4.505813475111">
        <ele>2</ele>
        <time>2020-08-01T14:44:17Z</time>
      </trkpt>
      <trkpt lat="51.195977414027" lon="4.506698184656">
        <ele>2</ele>
        <time>2020-08-01T14:44:32Z</time>
      </trkpt>
      <trkpt lat="51.196053689317" lon="4.507590186454">
        <ele>2.2</ele>
        <time>2020-08-01T14:44:47Z</time>
      </trkpt>
      <trkpt lat="51.196128623503" lon="4.508454863258">
        <ele>2.2</ele>
        <time>2020-08-01T14:45:02Z</time>
      </trkpt>
      <trkpt lat="51.196207832458" lon="4.509327083772">
        <ele>2</ele>
        <time>2020-08-01T14:45:17Z</time>
      </trkpt>
      <trkpt lat="51.19628561649" lon="4.510208692014">
        <ele>2.8</ele>
        <time>2020-08-01T14:45:32Z</time>
      </trkpt>
      <trkpt lat="51.196373039707" lon="4.511102454011">
        <ele>2</ele>
        <time>2020-08-01T14:45:47Z</time>
      </trkpt>
      <trkpt lat="51.196446716608" lon="4.511971573222">
        <ele>2.8</ele>
        <time>2020-08-01T14:46:01Z</time>
      </trkpt>
      <trkpt lat="51.196541432078" lon="4.512838932234">
        <ele>3</ele>
        <time>2020-08-01T14:46:15Z</time>
      </trkpt>
      <trkpt lat="51.196647211656" lon="4.513735963172">
        <ele>1</ele>
        <time>2020-08-01T14:46:30Z</time>
      </trkpt>
      <trkpt lat="51.19673907728" lon="4.514618241966">
        <ele>0</ele>
        <time>2020-08-01T14:46:45Z</time>
      </trkpt>
      <trkpt lat="51.196866565979" lon="4.515463724219">
        <ele>2</ele>
        <time>2020-08-01T14:47:00Z</time>
      </trkpt>
      <trkpt lat="51.196874947879" lon="4.515541005337">
        <ele>2.4</ele>
        <time>2020-08-01T14:47:03Z</time>
      </trkpt>
      <trkpt lat="51.196883665055" lon="4.515558272051">
        <ele>4.2</ele>
        <time>2020-08-01T14:47:15Z</time>
      </trkpt>
      <trkpt lat="51.196886179625" lon="4.515583836846">
        <ele>4.2</ele>
        <time>2020-08-01T14:47:16Z</time>
      </trkpt>
      <trkpt lat="51.19695365392" lon="4.516456644093">
        <ele>1.4</ele>
        <time>2020-08-01T14:47:33Z</time>
      </trkpt>
      <trkpt lat="51.197064462638" lon="4.517342359466">
        <ele>0.2</ele>
        <time>2020-08-01T14:47:47Z</time>
      </trkpt>
      <trkpt lat="51.197212906087" lon="4.518206030442">
        <ele>0.4</ele>
        <time>2020-08-01T14:48:01Z</time>
      </trkpt>
      <trkpt lat="51.197374760576" lon="4.519058050577">
        <ele>1</ele>
        <time>2020-08-01T14:48:16Z</time>
      </trkpt>
      <trkpt lat="51.197534100495" lon="4.519936892792">
        <ele>0.2</ele>
        <time>2020-08-01T14:48:31Z</time>
      </trkpt>
      <trkpt lat="51.19768707017" lon="4.520773741688">
        <ele>0</ele>
        <time>2020-08-01T14:48:45Z</time>
      </trkpt>
      <trkpt lat="51.197869041219" lon="4.521592401861">
        <ele>2.4</ele>
        <time>2020-08-01T14:48:59Z</time>
      </trkpt>
      <trkpt lat="51.197955626246" lon="4.522466969307">
        <ele>3.8</ele>
        <time>2020-08-01T14:49:14Z</time>
      </trkpt>
      <trkpt lat="51.197943807767" lon="4.523357043268">
        <ele>0.8</ele>
        <time>2020-08-01T14:49:29Z</time>
      </trkpt>
      <trkpt lat="51.197925535225" lon="4.524247368686">
        <ele>0.4</ele>
        <time>2020-08-01T14:49:44Z</time>
      </trkpt>
      <trkpt lat="51.19789577948" lon="4.525147668565">
        <ele>0.6</ele>
        <time>2020-08-01T14:49:59Z</time>
      </trkpt>
      <trkpt lat="51.197866359011" lon="4.526040508553">
        <ele>0.2</ele>
        <time>2020-08-01T14:50:13Z</time>
      </trkpt>
      <trkpt lat="51.197769296609" lon="4.526932761808">
        <ele>0.2</ele>
        <time>2020-08-01T14:50:28Z</time>
      </trkpt>
      <trkpt lat="51.19762085316" lon="4.527758127501">
        <ele>1</ele>
        <time>2020-08-01T14:50:44Z</time>
      </trkpt>
      <trkpt lat="51.197521360007" lon="4.52860143046">
        <ele>0.8</ele>
        <time>2020-08-01T14:51:01Z</time>
      </trkpt>
      <trkpt lat="51.197471990616" lon="4.528694637188">
        <ele>0.8</ele>
        <time>2020-08-01T14:51:04Z</time>
      </trkpt>
      <trkpt lat="51.197332096705" lon="4.528502104945">
        <ele>0.8</ele>
        <time>2020-08-01T14:51:15Z</time>
      </trkpt>
      <trkpt lat="51.197507865148" lon="4.528781725129">
        <ele>10.4</ele>
        <time>2020-08-01T15:04:34Z</time>
      </trkpt>
      <trkpt lat="51.197349028143" lon="4.529618574025">
        <ele>0.6</ele>
        <time>2020-08-01T15:04:59Z</time>
      </trkpt>
      <trkpt lat="51.197202931626" lon="4.530455087645">
        <ele>1.4</ele>
        <time>2020-08-01T15:05:19Z</time>
      </trkpt>
      <trkpt lat="51.197065636104" lon="4.531334097498">
        <ele>4.2</ele>
        <time>2020-08-01T15:05:36Z</time>
      </trkpt>
      <trkpt lat="51.196917779388" lon="4.532205228365">
        <ele>4.8</ele>
        <time>2020-08-01T15:05:54Z</time>
      </trkpt>
      <trkpt lat="51.196755505804" lon="4.533033527723">
        <ele>3.6</ele>
        <time>2020-08-01T15:06:13Z</time>
      </trkpt>
      <trkpt lat="51.196571523099" lon="4.533865347479">
        <ele>5.2</ele>
        <time>2020-08-01T15:06:31Z</time>
      </trkpt>
      <trkpt lat="51.196352168776" lon="4.534653581355">
        <ele>6.2</ele>
        <time>2020-08-01T15:06:50Z</time>
      </trkpt>
      <trkpt lat="51.196101717604" lon="4.535467799121">
        <ele>5.4</ele>
        <time>2020-08-01T15:07:06Z</time>
      </trkpt>
      <trkpt lat="51.195811703864" lon="4.536221667207">
        <ele>7.8</ele>
        <time>2020-08-01T15:07:21Z</time>
      </trkpt>
      <trkpt lat="51.195503166125" lon="4.536959525864">
        <ele>8.2</ele>
        <time>2020-08-01T15:07:37Z</time>
      </trkpt>
      <trkpt lat="51.195167554849" lon="4.537680201626">
        <ele>6</ele>
        <time>2020-08-01T15:07:54Z</time>
      </trkpt>
      <trkpt lat="51.19480537295" lon="4.538328457772">
        <ele>4</ele>
        <time>2020-08-01T15:08:10Z</time>
      </trkpt>
      <trkpt lat="51.194442688137" lon="4.538968332018">
        <ele>3.4</ele>
        <time>2020-08-01T15:08:25Z</time>
      </trkpt>
      <trkpt lat="51.194234900836" lon="4.539739634456">
        <ele>2.8</ele>
        <time>2020-08-01T15:08:41Z</time>
      </trkpt>
      <trkpt lat="51.194541846014" lon="4.540470955231">
        <ele>2.4</ele>
        <time>2020-08-01T15:08:56Z</time>
      </trkpt>
      <trkpt lat="51.194827082071" lon="4.541213423933">
        <ele>2.8</ele>
        <time>2020-08-01T15:09:13Z</time>
      </trkpt>
      <trkpt lat="51.195130674489" lon="4.541951450228">
        <ele>3</ele>
        <time>2020-08-01T15:09:30Z</time>
      </trkpt>
      <trkpt lat="51.195488162524" lon="4.542641364417">
        <ele>3.6</ele>
        <time>2020-08-01T15:09:45Z</time>
      </trkpt>
      <trkpt lat="51.195826958922" lon="4.543350054062">
        <ele>5</ele>
        <time>2020-08-01T15:10:01Z</time>
      </trkpt>
      <trkpt lat="51.196199115282" lon="4.544019264958">
        <ele>7</ele>
        <time>2020-08-01T15:10:18Z</time>
      </trkpt>
      <trkpt lat="51.196620724852" lon="4.544638771187">
        <ele>5.8</ele>
        <time>2020-08-01T15:10:33Z</time>
      </trkpt>
      <trkpt lat="51.197044513716" lon="4.545263893289">
        <ele>2.2</ele>
        <time>2020-08-01T15:10:48Z</time>
      </trkpt>
      <trkpt lat="51.197484144371" lon="4.545779128682">
        <ele>1.2</ele>
        <time>2020-08-01T15:11:02Z</time>
      </trkpt>
      <trkpt lat="51.197944478319" lon="4.546250862014">
        <ele>2.6</ele>
        <time>2020-08-01T15:11:17Z</time>
      </trkpt>
      <trkpt lat="51.198422749533" lon="4.546725193735">
        <ele>3.4</ele>
        <time>2020-08-01T15:11:33Z</time>
      </trkpt>
      <trkpt lat="51.198922981325" lon="4.547089135833">
        <ele>2.8</ele>
        <time>2020-08-01T15:11:49Z</time>
      </trkpt>
      <trkpt lat="51.19943218175" lon="4.547476714889">
        <ele>4.6</ele>
        <time>2020-08-01T15:12:05Z</time>
      </trkpt>
      <trkpt lat="51.199797884047" lon="4.548087420123">
        <ele>2.2</ele>
        <time>2020-08-01T15:12:22Z</time>
      </trkpt>
      <trkpt lat="51.199759997859" lon="4.548943882665">
        <ele>0.2</ele>
        <time>2020-08-01T15:12:37Z</time>
      </trkpt>
      <trkpt lat="51.199725883526" lon="4.549844769277">
        <ele>0.6</ele>
        <time>2020-08-01T15:12:54Z</time>
      </trkpt>
      <trkpt lat="51.199994104326" lon="4.550629985669">
        <ele>0</ele>
        <time>2020-08-01T15:13:12Z</time>
      </trkpt>
      <trkpt lat="51.200316807476" lon="4.551354181829">
        <ele>0</ele>
        <time>2020-08-01T15:13:27Z</time>
      </trkpt>
      <trkpt lat="51.200562816241" lon="4.552163454274">
        <ele>0</ele>
        <time>2020-08-01T15:13:43Z</time>
      </trkpt>
      <trkpt lat="51.200848136117" lon="4.552956214376">
        <ele>0</ele>
        <time>2020-08-01T15:14:01Z</time>
      </trkpt>
      <trkpt lat="51.201076207616" lon="4.553778730223">
        <ele>0</ele>
        <time>2020-08-01T15:14:20Z</time>
      </trkpt>
      <trkpt lat="51.201210737111" lon="4.554612310178">
        <ele>0</ele>
        <time>2020-08-01T15:14:37Z</time>
      </trkpt>
      <trkpt lat="51.201377034007" lon="4.555473382765">
        <ele>0</ele>
        <time>2020-08-01T15:14:53Z</time>
      </trkpt>
      <trkpt lat="51.201480466653" lon="4.556325738176">
        <ele>0</ele>
        <time>2020-08-01T15:15:11Z</time>
      </trkpt>
      <trkpt lat="51.201573421924" lon="4.557185134383">
        <ele>0</ele>
        <time>2020-08-01T15:15:33Z</time>
      </trkpt>
      <trkpt lat="51.201879445093" lon="4.557932548406">
        <ele>0</ele>
        <time>2020-08-01T15:15:56Z</time>
      </trkpt>
      <trkpt lat="51.20225688205" lon="4.55860611789">
        <ele>0.6</ele>
        <time>2020-08-01T15:16:10Z</time>
      </trkpt>
      <trkpt lat="51.202436841443" lon="4.559419078371">
        <ele>0</ele>
        <time>2020-08-01T15:16:25Z</time>
      </trkpt>
      <trkpt lat="51.202618309578" lon="4.561000994358">
        <ele>0</ele>
        <time>2020-08-01T15:16:54Z</time>
      </trkpt>
      <trkpt lat="51.202613699533" lon="4.561888134654">
        <ele>0</ele>
        <time>2020-08-01T15:17:11Z</time>
      </trkpt>
      <trkpt lat="51.202350675511" lon="4.561992992223">
        <ele>0</ele>
        <time>2020-08-01T15:17:23Z</time>
      </trkpt>
      <trkpt lat="51.202289152365" lon="4.562043870356">
        <ele>5.6</ele>
        <time>2020-08-01T15:18:07Z</time>
      </trkpt>
      <trkpt lat="51.202273226755" lon="4.562048061306">
        <ele>5.4</ele>
        <time>2020-08-01T15:18:08Z</time>
      </trkpt>
      <trkpt lat="51.201737036612" lon="4.56217513091">
        <ele>8.6</ele>
        <time>2020-08-01T15:18:27Z</time>
      </trkpt>
      <trkpt lat="51.20119908627" lon="4.562252998761">
        <ele>8.6</ele>
        <time>2020-08-01T15:18:47Z</time>
      </trkpt>
      <trkpt lat="51.200656609702" lon="4.562377721433">
        <ele>9.2</ele>
        <time>2020-08-01T15:19:06Z</time>
      </trkpt>
      <trkpt lat="51.200123017948" lon="4.562545862347">
        <ele>15.4</ele>
        <time>2020-08-01T15:19:22Z</time>
      </trkpt>
      <trkpt lat="51.199576098973" lon="4.56266631025">
        <ele>16.8</ele>
        <time>2020-08-01T15:19:39Z</time>
      </trkpt>
      <trkpt lat="51.199019876089" lon="4.562782902479">
        <ele>12</ele>
        <time>2020-08-01T15:19:56Z</time>
      </trkpt>
      <trkpt lat="51.19847832153" lon="4.562988761943">
        <ele>10.8</ele>
        <time>2020-08-01T15:20:13Z</time>
      </trkpt>
      <trkpt lat="51.197987393647" lon="4.563442893285">
        <ele>9.8</ele>
        <time>2020-08-01T15:20:28Z</time>
      </trkpt>
      <trkpt lat="51.197846661546" lon="4.563607429982">
        <ele>9.6</ele>
        <time>2020-08-01T15:20:33Z</time>
      </trkpt>
      <trkpt lat="51.197843224967" lon="4.563695691389">
        <ele>8.4</ele>
        <time>2020-08-01T15:20:35Z</time>
      </trkpt>
      <trkpt lat="51.19816316209" lon="4.564446793448">
        <ele>3</ele>
        <time>2020-08-01T15:20:52Z</time>
      </trkpt>
      <trkpt lat="51.198482344842" lon="4.565171241065">
        <ele>1.2</ele>
        <time>2020-08-01T15:21:08Z</time>
      </trkpt>
      <trkpt lat="51.19880940658" lon="4.565895101949">
        <ele>1.8</ele>
        <time>2020-08-01T15:21:24Z</time>
      </trkpt>
      <trkpt lat="51.199126074762" lon="4.566599181549">
        <ele>0.6</ele>
        <time>2020-08-01T15:21:39Z</time>
      </trkpt>
      <trkpt lat="51.199569980186" lon="4.567121038643">
        <ele>1.6</ele>
        <time>2020-08-01T15:21:54Z</time>
      </trkpt>
      <trkpt lat="51.200098458981" lon="4.567437036273">
        <ele>6.8</ele>
        <time>2020-08-01T15:22:11Z</time>
      </trkpt>
      <trkpt lat="51.200570779046" lon="4.56789158671">
        <ele>7.8</ele>
        <time>2020-08-01T15:22:26Z</time>
      </trkpt>
      <trkpt lat="51.201045613681" lon="4.56835929673">
        <ele>8.6</ele>
        <time>2020-08-01T15:22:42Z</time>
      </trkpt>
      <trkpt lat="51.201442831922" lon="4.568932953966">
        <ele>7.6</ele>
        <time>2020-08-01T15:22:59Z</time>
      </trkpt>
      <trkpt lat="51.201901908585" lon="4.569434778319">
        <ele>12.8</ele>
        <time>2020-08-01T15:23:21Z</time>
      </trkpt>
      <trkpt lat="51.20237506684" lon="4.56991330099">
        <ele>17.6</ele>
        <time>2020-08-01T15:23:42Z</time>
      </trkpt>
      <trkpt lat="51.202859037746" lon="4.570339855881">
        <ele>10.8</ele>
        <time>2020-08-01T15:24:08Z</time>
      </trkpt>
      <trkpt lat="51.202941348004" lon="4.570421076492">
        <ele>9.4</ele>
        <time>2020-08-01T15:24:17Z</time>
      </trkpt>
      <trkpt lat="51.202977054898" lon="4.570453430626">
        <ele>9.8</ele>
        <time>2020-08-01T15:24:25Z</time>
      </trkpt>
      <trkpt lat="51.202990633576" lon="4.570464494734">
        <ele>10</ele>
        <time>2020-08-01T15:24:26Z</time>
      </trkpt>
      <trkpt lat="51.203437305027" lon="4.570975120082">
        <ele>7</ele>
        <time>2020-08-01T15:24:52Z</time>
      </trkpt>
      <trkpt lat="51.203532271954" lon="4.571179219347">
        <ele>5.4</ele>
        <time>2020-08-01T15:24:56Z</time>
      </trkpt>
      <trkpt lat="51.203586502847" lon="4.571378289472">
        <ele>4</ele>
        <time>2020-08-01T15:24:59Z</time>
      </trkpt>
      <trkpt lat="51.203702089248" lon="4.572249923253">
        <ele>1.6</ele>
        <time>2020-08-01T15:25:09Z</time>
      </trkpt>
      <trkpt lat="51.203834774725" lon="4.573117952817">
        <ele>0.6</ele>
        <time>2020-08-01T15:25:18Z</time>
      </trkpt>
      <trkpt lat="51.20389721988" lon="4.573568731399">
        <ele>1.4</ele>
        <time>2020-08-01T15:25:23Z</time>
      </trkpt>
      <trkpt lat="51.203997383585" lon="4.574419661887">
        <ele>0</ele>
        <time>2020-08-01T15:25:39Z</time>
      </trkpt>
      <trkpt lat="51.20409251815" lon="4.575286853261">
        <ele>0</ele>
        <time>2020-08-01T15:25:56Z</time>
      </trkpt>
      <trkpt lat="51.204212211682" lon="4.576178435964">
        <ele>0</ele>
        <time>2020-08-01T15:26:13Z</time>
      </trkpt>
      <trkpt lat="51.20434229877" lon="4.577040933474">
        <ele>1.8</ele>
        <time>2020-08-01T15:26:29Z</time>
      </trkpt>
      <trkpt lat="51.204443552122" lon="4.577895887274">
        <ele>1.6</ele>
        <time>2020-08-01T15:26:45Z</time>
      </trkpt>
      <trkpt lat="51.204546062759" lon="4.578759055336">
        <ele>1.2</ele>
        <time>2020-08-01T15:27:02Z</time>
      </trkpt>
      <trkpt lat="51.204654608364" lon="4.579604202313">
        <ele>1.2</ele>
        <time>2020-08-01T15:27:19Z</time>
      </trkpt>
      <trkpt lat="51.204755945535" lon="4.580458485561">
        <ele>1.4</ele>
        <time>2020-08-01T15:27:35Z</time>
      </trkpt>
      <trkpt lat="51.20489131322" lon="4.581317462673">
        <ele>1.2</ele>
        <time>2020-08-01T15:27:52Z</time>
      </trkpt>
      <trkpt lat="51.205076134115" lon="4.582182139477">
        <ele>2</ele>
        <time>2020-08-01T15:28:08Z</time>
      </trkpt>
      <trkpt lat="51.205238240061" lon="4.583006499342">
        <ele>0</ele>
        <time>2020-08-01T15:28:23Z</time>
      </trkpt>
      <trkpt lat="51.205416523074" lon="4.583868242481">
        <ele>1.4</ele>
        <time>2020-08-01T15:28:39Z</time>
      </trkpt>
      <trkpt lat="51.205591956241" lon="4.584737696968">
        <ele>0.6</ele>
        <time>2020-08-01T15:28:55Z</time>
      </trkpt>
      <trkpt lat="51.205755235653" lon="4.585578150081">
        <ele>0.8</ele>
        <time>2020-08-01T15:29:10Z</time>
      </trkpt>
      <trkpt lat="51.205951958846" lon="4.58642229123">
        <ele>6.2</ele>
        <time>2020-08-01T15:29:26Z</time>
      </trkpt>
      <trkpt lat="51.206151280428" lon="4.587246399638">
        <ele>10.8</ele>
        <time>2020-08-01T15:29:42Z</time>
      </trkpt>
      <trkpt lat="51.206316906772" lon="4.588073441711">
        <ele>8.2</ele>
        <time>2020-08-01T15:29:57Z</time>
      </trkpt>
      <trkpt lat="51.206670120038" lon="4.588390696626">
        <ele>1</ele>
        <time>2020-08-01T15:30:15Z</time>
      </trkpt>
      <trkpt lat="51.206868435792" lon="4.587574048109">
        <ele>0</ele>
        <time>2020-08-01T15:30:33Z</time>
      </trkpt>
      <trkpt lat="51.207170268011" lon="4.58685312089">
        <ele>0.2</ele>
        <time>2020-08-01T15:30:49Z</time>
      </trkpt>
      <trkpt lat="51.207526834037" lon="4.586189106772">
        <ele>0.2</ele>
        <time>2020-08-01T15:31:04Z</time>
      </trkpt>
      <trkpt lat="51.207925393382" lon="4.585605475075">
        <ele>0</ele>
        <time>2020-08-01T15:31:19Z</time>
      </trkpt>
      <trkpt lat="51.20832789222" lon="4.584978006041">
        <ele>0</ele>
        <time>2020-08-01T15:31:34Z</time>
      </trkpt>
      <trkpt lat="51.20870256315" lon="4.584316171217">
        <ele>1</ele>
        <time>2020-08-01T15:31:50Z</time>
      </trkpt>
      <trkpt lat="51.209097099183" lon="4.583708399648">
        <ele>2.2</ele>
        <time>2020-08-01T15:32:08Z</time>
      </trkpt>
      <trkpt lat="51.209504291885" lon="4.583103980839">
        <ele>2</ele>
        <time>2020-08-01T15:32:27Z</time>
      </trkpt>
      <trkpt lat="51.20986094173" lon="4.582436111047">
        <ele>3.2</ele>
        <time>2020-08-01T15:32:46Z</time>
      </trkpt>
      <trkpt lat="51.210159840284" lon="4.581671346491">
        <ele>4</ele>
        <time>2020-08-01T15:33:05Z</time>
      </trkpt>
      <trkpt lat="51.210439376649" lon="4.580926530857">
        <ele>2.8</ele>
        <time>2020-08-01T15:33:24Z</time>
      </trkpt>
      <trkpt lat="51.210738694298" lon="4.580166711622">
        <ele>2.6</ele>
        <time>2020-08-01T15:33:43Z</time>
      </trkpt>
      <trkpt lat="51.211024014174" lon="4.579385853818">
        <ele>2.8</ele>
        <time>2020-08-01T15:34:00Z</time>
      </trkpt>
      <trkpt lat="51.211322661271" lon="4.578635673768">
        <ele>1</ele>
        <time>2020-08-01T15:34:17Z</time>
      </trkpt>
      <trkpt lat="51.211609992803" lon="4.577869903384">
        <ele>1.8</ele>
        <time>2020-08-01T15:34:33Z</time>
      </trkpt>
      <trkpt lat="51.211862790907" lon="4.577078400567">
        <ele>3.6</ele>
        <time>2020-08-01T15:34:50Z</time>
      </trkpt>
      <trkpt lat="51.212101339781" lon="4.576294525279">
        <ele>3.2</ele>
        <time>2020-08-01T15:35:06Z</time>
      </trkpt>
      <trkpt lat="51.212363944708" lon="4.575496149304">
        <ele>2.8</ele>
        <time>2020-08-01T15:35:23Z</time>
      </trkpt>
      <trkpt lat="51.212617329545" lon="4.574686373945">
        <ele>3.6</ele>
        <time>2020-08-01T15:35:40Z</time>
      </trkpt>
      <trkpt lat="51.212987055154" lon="4.574500882498">
        <ele>6.8</ele>
        <time>2020-08-01T15:36:02Z</time>
      </trkpt>
      <trkpt lat="51.213003148402" lon="4.57457699015">
        <ele>7</ele>
        <time>2020-08-01T15:36:17Z</time>
      </trkpt>
      <trkpt lat="51.212840539542" lon="4.573977768119">
        <ele>3.8</ele>
        <time>2020-08-01T15:36:57Z</time>
      </trkpt>
      <trkpt lat="51.212973895571" lon="4.573087275063">
        <ele>3.2</ele>
        <time>2020-08-01T15:37:12Z</time>
      </trkpt>
      <trkpt lat="51.213100629899" lon="4.572210695961">
        <ele>0.8</ele>
        <time>2020-08-01T15:37:25Z</time>
      </trkpt>
      <trkpt lat="51.213157794457" lon="4.571875671418">
        <ele>0</ele>
        <time>2020-08-01T15:37:30Z</time>
      </trkpt>
      <trkpt lat="51.213276817437" lon="4.5710104917">
        <ele>0</ele>
        <time>2020-08-01T15:37:43Z</time>
      </trkpt>
      <trkpt lat="51.213274470505" lon="4.570874788739">
        <ele>0</ele>
        <time>2020-08-01T15:37:45Z</time>
      </trkpt>
      <trkpt lat="51.213304142431" lon="4.570740259244">
        <ele>0</ele>
        <time>2020-08-01T15:37:47Z</time>
      </trkpt>
      <trkpt lat="51.213369102156" lon="4.570643280661">
        <ele>0</ele>
        <time>2020-08-01T15:37:49Z</time>
      </trkpt>
      <trkpt lat="51.213479156503" lon="4.570521324016">
        <ele>0.8</ele>
        <time>2020-08-01T15:37:52Z</time>
      </trkpt>
      <trkpt lat="51.213813175218" lon="4.569826045411">
        <ele>1</ele>
        <time>2020-08-01T15:38:05Z</time>
      </trkpt>
      <trkpt lat="51.213888612318" lon="4.569659413239">
        <ele>0.8</ele>
        <time>2020-08-01T15:38:08Z</time>
      </trkpt>
      <trkpt lat="51.214274514994" lon="4.569017192061">
        <ele>1</ele>
        <time>2020-08-01T15:38:24Z</time>
      </trkpt>
      <trkpt lat="51.214773824777" lon="4.568567000212">
        <ele>1</ele>
        <time>2020-08-01T15:38:41Z</time>
      </trkpt>
      <trkpt lat="51.215286294143" lon="4.568194424757">
        <ele>1.8</ele>
        <time>2020-08-01T15:38:56Z</time>
      </trkpt>
      <trkpt lat="51.215812006911" lon="4.567871051055">
        <ele>2.6</ele>
        <time>2020-08-01T15:39:11Z</time>
      </trkpt>
      <trkpt lat="51.216304024441" lon="4.567405268872">
        <ele>3.4</ele>
        <time>2020-08-01T15:39:27Z</time>
      </trkpt>
      <trkpt lat="51.21657065268" lon="4.566664644188">
        <ele>0</ele>
        <time>2020-08-01T15:39:41Z</time>
      </trkpt>
      <trkpt lat="51.21672152688" lon="4.565810109483">
        <ele>0</ele>
        <time>2020-08-01T15:39:56Z</time>
      </trkpt>
      <trkpt lat="51.216876089116" lon="4.564931854001">
        <ele>0</ele>
        <time>2020-08-01T15:40:11Z</time>
      </trkpt>
      <trkpt lat="51.217090498118" lon="4.56412392266">
        <ele>0</ele>
        <time>2020-08-01T15:40:27Z</time>
      </trkpt>
      <trkpt lat="51.217188985443" lon="4.562540078836">
        <ele>1.2</ele>
        <time>2020-08-01T15:40:58Z</time>
      </trkpt>
      <trkpt lat="51.217489895653" lon="4.561764250172">
        <ele>0.8</ele>
        <time>2020-08-01T15:41:14Z</time>
      </trkpt>
      <trkpt lat="51.217793655709" lon="4.56102681061">
        <ele>0.4</ele>
        <time>2020-08-01T15:41:30Z</time>
      </trkpt>
      <trkpt lat="51.218109820977" lon="4.560329604168">
        <ele>0</ele>
        <time>2020-08-01T15:41:46Z</time>
      </trkpt>
      <trkpt lat="51.218434451964" lon="4.55962870969">
        <ele>0</ele>
        <time>2020-08-01T15:42:04Z</time>
      </trkpt>
      <trkpt lat="51.218432188851" lon="4.558757243547">
        <ele>0</ele>
        <time>2020-08-01T15:42:22Z</time>
      </trkpt>
      <trkpt lat="51.218405115314" lon="4.558659678231">
        <ele>0</ele>
        <time>2020-08-01T15:42:27Z</time>
      </trkpt>
      <trkpt lat="51.218419113087" lon="4.558530010238">
        <ele>2</ele>
        <time>2020-08-01T15:43:08Z</time>
      </trkpt>
      <trkpt lat="51.218419364544" lon="4.558441665012">
        <ele>1.6</ele>
        <time>2020-08-01T15:43:11Z</time>
      </trkpt>
      <trkpt lat="51.218255582218" lon="4.557570701783">
        <ele>0.6</ele>
        <time>2020-08-01T15:43:29Z</time>
      </trkpt>
      <trkpt lat="51.217901363124" lon="4.556913644642">
        <ele>1</ele>
        <time>2020-08-01T15:43:44Z</time>
      </trkpt>
      <trkpt lat="51.217540187053" lon="4.556242757366">
        <ele>0.8</ele>
        <time>2020-08-01T15:43:59Z</time>
      </trkpt>
      <trkpt lat="51.21722779364" lon="4.555509173478">
        <ele>0.4</ele>
        <time>2020-08-01T15:44:14Z</time>
      </trkpt>
      <trkpt lat="51.217064430409" lon="4.5546657867">
        <ele>0</ele>
        <time>2020-08-01T15:44:29Z</time>
      </trkpt>
      <trkpt lat="51.216933421312" lon="4.553772611436">
        <ele>0.2</ele>
        <time>2020-08-01T15:44:44Z</time>
      </trkpt>
      <trkpt lat="51.216838454385" lon="4.552889578271">
        <ele>0</ele>
        <time>2020-08-01T15:44:58Z</time>
      </trkpt>
      <trkpt lat="51.216824037517" lon="4.551977376094">
        <ele>1.6</ele>
        <time>2020-08-01T15:45:14Z</time>
      </trkpt>
      <trkpt lat="51.216869970329" lon="4.551094426748">
        <ele>0.8</ele>
        <time>2020-08-01T15:45:30Z</time>
      </trkpt>
      <trkpt lat="51.21689922316" lon="4.550232935066">
        <ele>0</ele>
        <time>2020-08-01T15:45:45Z</time>
      </trkpt>
      <trkpt lat="51.216894948391" lon="4.550135118293">
        <ele>0</ele>
        <time>2020-08-01T15:45:47Z</time>
      </trkpt>
      <trkpt lat="51.216853374167" lon="4.550073427509">
        <ele>0</ele>
        <time>2020-08-01T15:45:49Z</time>
      </trkpt>
      <trkpt lat="51.216310729961" lon="4.550057166623">
        <ele>0</ele>
        <time>2020-08-01T15:46:06Z</time>
      </trkpt>
      <trkpt lat="51.215772444343" lon="4.550083653427">
        <ele>0</ele>
        <time>2020-08-01T15:46:22Z</time>
      </trkpt>
      <trkpt lat="51.215223010798" lon="4.550235449636">
        <ele>1.6</ele>
        <time>2020-08-01T15:46:39Z</time>
      </trkpt>
      <trkpt lat="51.214682378248" lon="4.550388670768">
        <ele>0</ele>
        <time>2020-08-01T15:46:54Z</time>
      </trkpt>
      <trkpt lat="51.214139231128" lon="4.55045052919">
        <ele>0</ele>
        <time>2020-08-01T15:47:10Z</time>
      </trkpt>
      <trkpt lat="51.213588875574" lon="4.550470561931">
        <ele>2</ele>
        <time>2020-08-01T15:47:26Z</time>
      </trkpt>
      <trkpt lat="51.213045141721" lon="4.550640043949">
        <ele>0.4</ele>
        <time>2020-08-01T15:47:43Z</time>
      </trkpt>
      <trkpt lat="51.212498558022" lon="4.550668961504">
        <ele>0</ele>
        <time>2020-08-01T15:48:00Z</time>
      </trkpt>
      <trkpt lat="51.211969492494" lon="4.550945312747">
        <ele>0</ele>
        <time>2020-08-01T15:48:16Z</time>
      </trkpt>
      <trkpt lat="51.211473032557" lon="4.551307662284">
        <ele>0</ele>
        <time>2020-08-01T15:48:33Z</time>
      </trkpt>
      <trkpt lat="51.211031641703" lon="4.551786687869">
        <ele>0</ele>
        <time>2020-08-01T15:48:51Z</time>
      </trkpt>
      <trkpt lat="51.210487991669" lon="4.551924570124">
        <ele>0</ele>
        <time>2020-08-01T15:49:08Z</time>
      </trkpt>
      <trkpt lat="51.209944090178" lon="4.55192909635">
        <ele>1</ele>
        <time>2020-08-01T15:49:24Z</time>
      </trkpt>
      <trkpt lat="51.209777458006" lon="4.551863130797">
        <ele>0.2</ele>
        <time>2020-08-01T15:49:30Z</time>
      </trkpt>
      <trkpt lat="51.209795814367" lon="4.551766236033">
        <ele>0</ele>
        <time>2020-08-01T15:49:32Z</time>
      </trkpt>
      <trkpt lat="51.210041404037" lon="4.550966183678">
        <ele>0</ele>
        <time>2020-08-01T15:49:51Z</time>
      </trkpt>
      <trkpt lat="51.210257740876" lon="4.550135956483">
        <ele>0</ele>
        <time>2020-08-01T15:50:08Z</time>
      </trkpt>
      <trkpt lat="51.21047701138" lon="4.549318888871">
        <ele>0.4</ele>
        <time>2020-08-01T15:50:24Z</time>
      </trkpt>
      <trkpt lat="51.210553454308" lon="4.548795271578">
        <ele>0.2</ele>
        <time>2020-08-01T15:50:36Z</time>
      </trkpt>
      <trkpt lat="51.21044264559" lon="4.548518417421">
        <ele>0</ele>
        <time>2020-08-01T15:50:44Z</time>
      </trkpt>
      <trkpt lat="51.210454966983" lon="4.547738230169">
        <ele>0</ele>
        <time>2020-08-01T15:51:03Z</time>
      </trkpt>
      <trkpt lat="51.210602823699" lon="4.546923341851">
        <ele>1.4</ele>
        <time>2020-08-01T15:51:20Z</time>
      </trkpt>
      <trkpt lat="51.21055328667" lon="4.54684128305">
        <ele>2.4</ele>
        <time>2020-08-01T15:51:35Z</time>
      </trkpt>
      <trkpt lat="51.210243491646" lon="4.546943626049">
        <ele>3.4</ele>
        <time>2020-08-01T15:58:55Z</time>
      </trkpt>
      <trkpt lat="51.21032278442" lon="4.546740951707">
        <ele>0</ele>
        <time>2020-08-01T15:59:08Z</time>
      </trkpt>
      <trkpt lat="51.21042923455" lon="4.546651600653">
        <ele>0</ele>
        <time>2020-08-01T15:59:13Z</time>
      </trkpt>
      <trkpt lat="51.210501067433" lon="4.5463760876">
        <ele>0.4</ele>
        <time>2020-08-01T15:59:21Z</time>
      </trkpt>
      <trkpt lat="51.210739700126" lon="4.546060006151">
        <ele>0</ele>
        <time>2020-08-01T15:59:37Z</time>
      </trkpt>
      <trkpt lat="51.210635848385" lon="4.546800882292">
        <ele>1.2</ele>
        <time>2020-08-01T16:00:00Z</time>
      </trkpt>
      <trkpt lat="51.210485728556" lon="4.54762750527">
        <ele>2.2</ele>
        <time>2020-08-01T16:00:21Z</time>
      </trkpt>
      <trkpt lat="51.210353378355" lon="4.54779681965">
        <ele>1.6</ele>
        <time>2020-08-01T16:00:29Z</time>
      </trkpt>
      <trkpt lat="51.210283473309" lon="4.548475166817">
        <ele>2.8</ele>
        <time>2020-08-01T16:00:47Z</time>
      </trkpt>
      <trkpt lat="51.210365699748" lon="4.548616485651">
        <ele>2.6</ele>
        <time>2020-08-01T16:00:53Z</time>
      </trkpt>
      <trkpt lat="51.210419008632" lon="4.548621347153">
        <ele>2.8</ele>
        <time>2020-08-01T16:00:55Z</time>
      </trkpt>
      <trkpt lat="51.21056166857" lon="4.548856459448">
        <ele>2.6</ele>
        <time>2020-08-01T16:01:03Z</time>
      </trkpt>
      <trkpt lat="51.210598800387" lon="4.548828296264">
        <ele>2.8</ele>
        <time>2020-08-01T16:01:05Z</time>
      </trkpt>
      <trkpt lat="51.210827290981" lon="4.548004439313">
        <ele>2.6</ele>
        <time>2020-08-01T16:01:27Z</time>
      </trkpt>
      <trkpt lat="51.211033737178" lon="4.547196759429">
        <ele>1.6</ele>
        <time>2020-08-01T16:01:45Z</time>
      </trkpt>
      <trkpt lat="51.211247727085" lon="4.546369298261">
        <ele>1.2</ele>
        <time>2020-08-01T16:02:04Z</time>
      </trkpt>
      <trkpt lat="51.211150832321" lon="4.545507219846">
        <ele>1</ele>
        <time>2020-08-01T16:02:21Z</time>
      </trkpt>
      <trkpt lat="51.210951846015" lon="4.544686045103">
        <ele>3</ele>
        <time>2020-08-01T16:02:41Z</time>
      </trkpt>
      <trkpt lat="51.210767695672" lon="4.543861936695">
        <ele>5.6</ele>
        <time>2020-08-01T16:03:04Z</time>
      </trkpt>
      <trkpt lat="51.210812706475" lon="4.543046126368">
        <ele>5.8</ele>
        <time>2020-08-01T16:03:21Z</time>
      </trkpt>
      <trkpt lat="51.210836175795" lon="4.542911932149">
        <ele>5.4</ele>
        <time>2020-08-01T16:03:23Z</time>
      </trkpt>
      <trkpt lat="51.210844222419" lon="4.542765500356">
        <ele>5</ele>
        <time>2020-08-01T16:03:25Z</time>
      </trkpt>
      <trkpt lat="51.210879258761" lon="4.542546648947">
        <ele>4.8</ele>
        <time>2020-08-01T16:03:28Z</time>
      </trkpt>
      <trkpt lat="51.210896776932" lon="4.542381525517">
        <ele>4.8</ele>
        <time>2020-08-01T16:03:30Z</time>
      </trkpt>
      <trkpt lat="51.210940698088" lon="4.542156303864">
        <ele>4.4</ele>
        <time>2020-08-01T16:03:33Z</time>
      </trkpt>
      <trkpt lat="51.210968023082" lon="4.542012805736">
        <ele>3.8</ele>
        <time>2020-08-01T16:03:35Z</time>
      </trkpt>
      <trkpt lat="51.210982356131" lon="4.541855896568">
        <ele>3.2</ele>
        <time>2020-08-01T16:03:37Z</time>
      </trkpt>
      <trkpt lat="51.211012279514" lon="4.541713907182">
        <ele>2.8</ele>
        <time>2020-08-01T16:03:39Z</time>
      </trkpt>
      <trkpt lat="51.211024684726" lon="4.541562530068">
        <ele>2.4</ele>
        <time>2020-08-01T16:03:41Z</time>
      </trkpt>
      <trkpt lat="51.211044214553" lon="4.541414338076">
        <ele>2</ele>
        <time>2020-08-01T16:03:43Z</time>
      </trkpt>
      <trkpt lat="51.211399774751" lon="4.540976886715">
        <ele>0</ele>
        <time>2020-08-01T16:03:59Z</time>
      </trkpt>
      <trkpt lat="51.211930181383" lon="4.541256758356">
        <ele>0</ele>
        <time>2020-08-01T16:04:16Z</time>
      </trkpt>
      <trkpt lat="51.212476262168" lon="4.541238234357">
        <ele>0</ele>
        <time>2020-08-01T16:04:33Z</time>
      </trkpt>
      <trkpt lat="51.213020247478" lon="4.541200180531">
        <ele>0</ele>
        <time>2020-08-01T16:04:49Z</time>
      </trkpt>
      <trkpt lat="51.213511678275" lon="4.541226751154">
        <ele>2.2</ele>
        <time>2020-08-01T16:05:04Z</time>
      </trkpt>
      <trkpt lat="51.213626594124" lon="4.542084470981">
        <ele>2.2</ele>
        <time>2020-08-01T16:05:20Z</time>
      </trkpt>
      <trkpt lat="51.213827843543" lon="4.542914865814">
        <ele>2.6</ele>
        <time>2020-08-01T16:05:35Z</time>
      </trkpt>
      <trkpt lat="51.214021213976" lon="4.543767388863">
        <ele>2.4</ele>
        <time>2020-08-01T16:05:50Z</time>
      </trkpt>
      <trkpt lat="51.21443494456" lon="4.544298046952">
        <ele>2.6</ele>
        <time>2020-08-01T16:06:06Z</time>
      </trkpt>
      <trkpt lat="51.214539131577" lon="4.545195748442">
        <ele>2.8</ele>
        <time>2020-08-01T16:06:21Z</time>
      </trkpt>
      <trkpt lat="51.21466796138" lon="4.546063861825">
        <ele>1.8</ele>
        <time>2020-08-01T16:06:35Z</time>
      </trkpt>
      <trkpt lat="51.215133911201" lon="4.546430318493">
        <ele>0</ele>
        <time>2020-08-01T16:06:50Z</time>
      </trkpt>
      <trkpt lat="51.215687703334" lon="4.546606170755">
        <ele>0</ele>
        <time>2020-08-01T16:07:05Z</time>
      </trkpt>
      <trkpt lat="51.216224228753" lon="4.546779927542">
        <ele>0</ele>
        <time>2020-08-01T16:07:19Z</time>
      </trkpt>
      <trkpt lat="51.216768297882" lon="4.546677165448">
        <ele>0</ele>
        <time>2020-08-01T16:07:34Z</time>
      </trkpt>
      <trkpt lat="51.217306248224" lon="4.546423948249">
        <ele>0</ele>
        <time>2020-08-01T16:07:54Z</time>
      </trkpt>
      <trkpt lat="51.217360982031" lon="4.546392180848">
        <ele>0</ele>
        <time>2020-08-01T16:07:56Z</time>
      </trkpt>
      <trkpt lat="51.217434491294" lon="4.546367118967">
        <ele>0</ele>
        <time>2020-08-01T16:07:59Z</time>
      </trkpt>
      <trkpt lat="51.21773154583" lon="4.545643006626">
        <ele>1</ele>
        <time>2020-08-01T16:08:17Z</time>
      </trkpt>
      <trkpt lat="51.217981997002" lon="4.544891988386">
        <ele>0.8</ele>
        <time>2020-08-01T16:08:33Z</time>
      </trkpt>
      <trkpt lat="51.218161704938" lon="4.544060000992">
        <ele>0.2</ele>
        <time>2020-08-01T16:08:49Z</time>
      </trkpt>
      <trkpt lat="51.218270250543" lon="4.543201610613">
        <ele>0</ele>
        <time>2020-08-01T16:09:05Z</time>
      </trkpt>
      <trkpt lat="51.218283577764" lon="4.542329893013">
        <ele>0</ele>
        <time>2020-08-01T16:09:22Z</time>
      </trkpt>
      <trkpt lat="51.218259773168" lon="4.541422719976">
        <ele>0</ele>
        <time>2020-08-01T16:09:37Z</time>
      </trkpt>
      <trkpt lat="51.218276620787" lon="4.540565670701">
        <ele>0</ele>
        <time>2020-08-01T16:09:52Z</time>
      </trkpt>
      <trkpt lat="51.218247619413" lon="4.539664029718">
        <ele>0</ele>
        <time>2020-08-01T16:10:09Z</time>
      </trkpt>
      <trkpt lat="51.218221384066" lon="4.5387569405">
        <ele>0</ele>
        <time>2020-08-01T16:10:24Z</time>
      </trkpt>
      <trkpt lat="51.218195651633" lon="4.537849432187">
        <ele>0</ele>
        <time>2020-08-01T16:10:39Z</time>
      </trkpt>
      <trkpt lat="51.217991468549" lon="4.537031694023">
        <ele>0</ele>
        <time>2020-08-01T16:10:54Z</time>
      </trkpt>
      <trkpt lat="51.217577570327" lon="4.536452169457">
        <ele>0</ele>
        <time>2020-08-01T16:11:11Z</time>
      </trkpt>
      <trkpt lat="51.217130228324" lon="4.535924193576">
        <ele>0</ele>
        <time>2020-08-01T16:11:25Z</time>
      </trkpt>
      <trkpt lat="51.216728819133" lon="4.535344836648">
        <ele>0</ele>
        <time>2020-08-01T16:11:39Z</time>
      </trkpt>
      <trkpt lat="51.216257337258" lon="4.534665399834">
        <ele>0</ele>
        <time>2020-08-01T16:12:01Z</time>
      </trkpt>
      <trkpt lat="51.215886522002" lon="4.534035248592">
        <ele>0</ele>
        <time>2020-08-01T16:12:21Z</time>
      </trkpt>
      <trkpt lat="51.215687116601" lon="4.533185910665">
        <ele>0</ele>
        <time>2020-08-01T16:12:38Z</time>
      </trkpt>
      <trkpt lat="51.215517383126" lon="4.532323580793">
        <ele>0</ele>
        <time>2020-08-01T16:12:54Z</time>
      </trkpt>
      <trkpt lat="51.215364161994" lon="4.531488073001">
        <ele>0</ele>
        <time>2020-08-01T16:13:12Z</time>
      </trkpt>
      <trkpt lat="51.21518931556" lon="4.530632029554">
        <ele>0</ele>
        <time>2020-08-01T16:13:30Z</time>
      </trkpt>
      <trkpt lat="51.215037100256" lon="4.529797946685">
        <ele>0</ele>
        <time>2020-08-01T16:13:47Z</time>
      </trkpt>
      <trkpt lat="51.214867115324" lon="4.528940143039">
        <ele>0</ele>
        <time>2020-08-01T16:14:04Z</time>
      </trkpt>
      <trkpt lat="51.214676175642" lon="4.528110083482">
        <ele>0</ele>
        <time>2020-08-01T16:14:19Z</time>
      </trkpt>
      <trkpt lat="51.214680869506" lon="4.527685204971">
        <ele>0</ele>
        <time>2020-08-01T16:14:29Z</time>
      </trkpt>
      <trkpt lat="51.21524128334" lon="4.527554866426">
        <ele>0</ele>
        <time>2020-08-01T16:14:48Z</time>
      </trkpt>
      <trkpt lat="51.215777808759" lon="4.527375829042">
        <ele>1.2</ele>
        <time>2020-08-01T16:15:05Z</time>
      </trkpt>
      <trkpt lat="51.216335037471" lon="4.527174160528">
        <ele>2.6</ele>
        <time>2020-08-01T16:15:22Z</time>
      </trkpt>
      <trkpt lat="51.216883129912" lon="4.526974252213">
        <ele>1.8</ele>
        <time>2020-08-01T16:15:40Z</time>
      </trkpt>
      <trkpt lat="51.217413201268" lon="4.526802926177">
        <ele>0.4</ele>
        <time>2020-08-01T16:15:57Z</time>
      </trkpt>
      <trkpt lat="51.217964059736" lon="4.526586086424">
        <ele>1</ele>
        <time>2020-08-01T16:16:15Z</time>
      </trkpt>
      <trkpt lat="51.218505698114" lon="4.526374862544">
        <ele>0.6</ele>
        <time>2020-08-01T16:16:33Z</time>
      </trkpt>
      <trkpt lat="51.219038619316" lon="4.526161794646">
        <ele>2</ele>
        <time>2020-08-01T16:16:51Z</time>
      </trkpt>
      <trkpt lat="51.219583442816" lon="4.526010417532">
        <ele>1.4</ele>
        <time>2020-08-01T16:17:08Z</time>
      </trkpt>
      <trkpt lat="51.220131619076" lon="4.525838504763">
        <ele>1</ele>
        <time>2020-08-01T16:17:25Z</time>
      </trkpt>
      <trkpt lat="51.22067443092" lon="4.525678494292">
        <ele>1.2</ele>
        <time>2020-08-01T16:17:42Z</time>
      </trkpt>
      <trkpt lat="51.221213554728" lon="4.525411782234">
        <ele>1.2</ele>
        <time>2020-08-01T16:18:01Z</time>
      </trkpt>
      <trkpt lat="51.221695011064" lon="4.524999895668">
        <ele>0.2</ele>
        <time>2020-08-01T16:18:18Z</time>
      </trkpt>
      <trkpt lat="51.222081668111" lon="4.524415341962">
        <ele>0</ele>
        <time>2020-08-01T16:18:34Z</time>
      </trkpt>
      <trkpt lat="51.222505792251" lon="4.523868087711">
        <ele>0</ele>
        <time>2020-08-01T16:18:51Z</time>
      </trkpt>
      <trkpt lat="51.222966461475" lon="4.523356540354">
        <ele>0</ele>
        <time>2020-08-01T16:19:09Z</time>
      </trkpt>
      <trkpt lat="51.22342788507" lon="4.522836946373">
        <ele>0</ele>
        <time>2020-08-01T16:19:27Z</time>
      </trkpt>
      <trkpt lat="51.223883441335" lon="4.522346772861">
        <ele>0</ele>
        <time>2020-08-01T16:19:44Z</time>
      </trkpt>
      <trkpt lat="51.224361712549" lon="4.521882583239">
        <ele>0</ele>
        <time>2020-08-01T16:20:02Z</time>
      </trkpt>
      <trkpt lat="51.224884491652" lon="4.521612937516">
        <ele>0</ele>
        <time>2020-08-01T16:20:22Z</time>
      </trkpt>
      <trkpt lat="51.225072916764" lon="4.521563568125">
        <ele>0</ele>
        <time>2020-08-01T16:20:30Z</time>
      </trkpt>
      <trkpt lat="51.22557365147" lon="4.521329210201">
        <ele>0</ele>
        <time>2020-08-01T16:20:52Z</time>
      </trkpt>
      <trkpt lat="51.226118977884" lon="4.521087727662">
        <ele>1.2</ele>
        <time>2020-08-01T16:21:12Z</time>
      </trkpt>
      <trkpt lat="51.226636308752" lon="4.520791930411">
        <ele>2.4</ele>
        <time>2020-08-01T16:21:29Z</time>
      </trkpt>
      <trkpt lat="51.227161853882" lon="4.520541311601">
        <ele>4</ele>
        <time>2020-08-01T16:21:49Z</time>
      </trkpt>
      <trkpt lat="51.227251540212" lon="4.520485488147">
        <ele>2.8</ele>
        <time>2020-08-01T16:21:56Z</time>
      </trkpt>
      <trkpt lat="51.22710083365" lon="4.519645621767">
        <ele>8.2</ele>
        <time>2020-08-01T16:22:14Z</time>
      </trkpt>
      <trkpt lat="51.227532669138" lon="4.519124351406">
        <ele>8</ele>
        <time>2020-08-01T16:22:30Z</time>
      </trkpt>
      <trkpt lat="51.227830394226" lon="4.518362771972">
        <ele>6.6</ele>
        <time>2020-08-01T16:22:46Z</time>
      </trkpt>
      <trkpt lat="51.228106242555" lon="4.517614100664">
        <ele>6</ele>
        <time>2020-08-01T16:23:01Z</time>
      </trkpt>
      <trkpt lat="51.228425509126" lon="4.516913541462">
        <ele>4.2</ele>
        <time>2020-08-01T16:23:16Z</time>
      </trkpt>
      <trkpt lat="51.228607396356" lon="4.516069316494">
        <ele>3</ele>
        <time>2020-08-01T16:23:31Z</time>
      </trkpt>
      <trkpt lat="51.22878559555" lon="4.515207657174">
        <ele>3.6</ele>
        <time>2020-08-01T16:23:46Z</time>
      </trkpt>
      <trkpt lat="51.228958933242" lon="4.514359073618">
        <ele>4.2</ele>
        <time>2020-08-01T16:24:01Z</time>
      </trkpt>
      <trkpt lat="51.229228578965" lon="4.513575617425">
        <ele>0</ele>
        <time>2020-08-01T16:24:17Z</time>
      </trkpt>
      <trkpt lat="51.229436114809" lon="4.512734996674">
        <ele>0</ele>
        <time>2020-08-01T16:24:32Z</time>
      </trkpt>
      <trkpt lat="51.229631161622" lon="4.511923209659">
        <ele>0</ele>
        <time>2020-08-01T16:24:48Z</time>
      </trkpt>
      <trkpt lat="51.22981321649" lon="4.511106896418">
        <ele>0.2</ele>
        <time>2020-08-01T16:25:03Z</time>
      </trkpt>
      <trkpt lat="51.230002479792" lon="4.510287649512">
        <ele>1.4</ele>
        <time>2020-08-01T16:25:18Z</time>
      </trkpt>
      <trkpt lat="51.230150671784" lon="4.509403610519">
        <ele>1.6</ele>
        <time>2020-08-01T16:25:34Z</time>
      </trkpt>
      <trkpt lat="51.230312945368" lon="4.508554021135">
        <ele>2.8</ele>
        <time>2020-08-01T16:25:49Z</time>
      </trkpt>
      <trkpt lat="51.230481505377" lon="4.507719435352">
        <ele>3</ele>
        <time>2020-08-01T16:26:04Z</time>
      </trkpt>
      <trkpt lat="51.23066062658" lon="4.506878144049">
        <ele>2.4</ele>
        <time>2020-08-01T16:26:22Z</time>
      </trkpt>
      <trkpt lat="51.230887524613" lon="4.506065099749">
        <ele>2.2</ele>
        <time>2020-08-01T16:26:38Z</time>
      </trkpt>
      <trkpt lat="51.231118194501" lon="4.505286588877">
        <ele>2.8</ele>
        <time>2020-08-01T16:26:54Z</time>
      </trkpt>
      <trkpt lat="51.23120042094" lon="4.505050973668">
        <ele>2.6</ele>
        <time>2020-08-01T16:27:00Z</time>
      </trkpt>
      <trkpt lat="51.231245850838" lon="4.505070335857">
        <ele>2</ele>
        <time>2020-08-01T16:27:08Z</time>
      </trkpt>
      <trkpt lat="51.231189608289" lon="4.505035467153">
        <ele>3.2</ele>
        <time>2020-08-01T16:28:14Z</time>
      </trkpt>
      <trkpt lat="51.231422122195" lon="4.504247652372">
        <ele>1.2</ele>
        <time>2020-08-01T16:28:31Z</time>
      </trkpt>
      <trkpt lat="51.231657318309" lon="4.50346578874">
        <ele>1.2</ele>
        <time>2020-08-01T16:28:48Z</time>
      </trkpt>
      <trkpt lat="51.231701574741" lon="4.50339118983">
        <ele>1.2</ele>
        <time>2020-08-01T16:28:52Z</time>
      </trkpt>
      <trkpt lat="51.231718589998" lon="4.503375850953">
        <ele>1.4</ele>
        <time>2020-08-01T16:30:02Z</time>
      </trkpt>
      <trkpt lat="51.231903746169" lon="4.503005203335">
        <ele>0.8</ele>
        <time>2020-08-01T16:30:15Z</time>
      </trkpt>
      <trkpt lat="51.231966191324" lon="4.502947535863">
        <ele>0.4</ele>
        <time>2020-08-01T16:30:18Z</time>
      </trkpt>
      <trkpt lat="51.23219199971" lon="4.502180424375">
        <ele>0</ele>
        <time>2020-08-01T16:30:35Z</time>
      </trkpt>
      <trkpt lat="51.232507829702" lon="4.50147173473">
        <ele>0.4</ele>
        <time>2020-08-01T16:30:51Z</time>
      </trkpt>
      <trkpt lat="51.232853666896" lon="4.500805289861">
        <ele>0.2</ele>
        <time>2020-08-01T16:31:06Z</time>
      </trkpt>
      <trkpt lat="51.233217608994" lon="4.500095594388">
        <ele>0</ele>
        <time>2020-08-01T16:31:21Z</time>
      </trkpt>
      <trkpt lat="51.233588508069" lon="4.499440548903">
        <ele>0</ele>
        <time>2020-08-01T16:31:35Z</time>
      </trkpt>
      <trkpt lat="51.233938703851" lon="4.498753149284">
        <ele>0</ele>
        <time>2020-08-01T16:31:49Z</time>
      </trkpt>
      <trkpt lat="51.234221592976" lon="4.497960473001">
        <ele>0</ele>
        <time>2020-08-01T16:32:03Z</time>
      </trkpt>
      <trkpt lat="51.234450502665" lon="4.497162180845">
        <ele>0</ele>
        <time>2020-08-01T16:32:16Z</time>
      </trkpt>
      <trkpt lat="51.234683268028" lon="4.49634201193">
        <ele>0</ele>
        <time>2020-08-01T16:32:30Z</time>
      </trkpt>
      <trkpt lat="51.234923074187" lon="4.495513544934">
        <ele>0</ele>
        <time>2020-08-01T16:32:46Z</time>
      </trkpt>
      <trkpt lat="51.235168747676" lon="4.494686838137">
        <ele>0</ele>
        <time>2020-08-01T16:33:02Z</time>
      </trkpt>
      <trkpt lat="51.235400507211" lon="4.493870776353">
        <ele>0</ele>
        <time>2020-08-01T16:33:18Z</time>
      </trkpt>
      <trkpt lat="51.235649282003" lon="4.493050691257">
        <ele>0</ele>
        <time>2020-08-01T16:33:34Z</time>
      </trkpt>
      <trkpt lat="51.235869055421" lon="4.49226505577">
        <ele>0</ele>
        <time>2020-08-01T16:33:48Z</time>
      </trkpt>
      <trkpt lat="51.2360904214" lon="4.491452765841">
        <ele>0</ele>
        <time>2020-08-01T16:34:03Z</time>
      </trkpt>
      <trkpt lat="51.236326120428" lon="4.490651120925">
        <ele>0</ele>
        <time>2020-08-01T16:34:21Z</time>
      </trkpt>
      <trkpt lat="51.236337268355" lon="4.490581718793">
        <ele>0</ele>
        <time>2020-08-01T16:34:24Z</time>
      </trkpt>
      <trkpt lat="51.236321845659" lon="4.490524889511">
        <ele>0</ele>
        <time>2020-08-01T16:34:49Z</time>
      </trkpt>
      <trkpt lat="51.236333915595" lon="4.490483734382">
        <ele>0</ele>
        <time>2020-08-01T16:34:51Z</time>
      </trkpt>
      <trkpt lat="51.236315391596" lon="4.490188104769">
        <ele>0</ele>
        <time>2020-08-01T16:35:01Z</time>
      </trkpt>
      <trkpt lat="51.236306087687" lon="4.490139238292">
        <ele>3</ele>
        <time>2020-08-01T16:35:28Z</time>
      </trkpt>
      <trkpt lat="51.236297370511" lon="4.490122893587">
        <ele>3.8</ele>
        <time>2020-08-01T16:35:29Z</time>
      </trkpt>
      <trkpt lat="51.236087403916" lon="4.489706983709">
        <ele>6.8</ele>
        <time>2020-08-01T16:35:40Z</time>
      </trkpt>
      <trkpt lat="51.235961759235" lon="4.489688375891">
        <ele>6.4</ele>
        <time>2020-08-01T16:35:44Z</time>
      </trkpt>
      <trkpt lat="51.235588094133" lon="4.489046992903">
        <ele>2.8</ele>
        <time>2020-08-01T16:36:00Z</time>
      </trkpt>
      <trkpt lat="51.23521367466" lon="4.488387085916">
        <ele>1.2</ele>
        <time>2020-08-01T16:36:16Z</time>
      </trkpt>
      <trkpt lat="51.234842021214" lon="4.487733213897">
        <ele>0.2</ele>
        <time>2020-08-01T16:36:31Z</time>
      </trkpt>
      <trkpt lat="51.234477995297" lon="4.487069618874">
        <ele>0.2</ele>
        <time>2020-08-01T16:36:47Z</time>
      </trkpt>
      <trkpt lat="51.234134505035" lon="4.48636084541">
        <ele>0</ele>
        <time>2020-08-01T16:37:06Z</time>
      </trkpt>
      <trkpt lat="51.233782465235" lon="4.485705716106">
        <ele>0</ele>
        <time>2020-08-01T16:37:21Z</time>
      </trkpt>
      <trkpt lat="51.23340486064" lon="4.485051257354">
        <ele>0</ele>
        <time>2020-08-01T16:37:34Z</time>
      </trkpt>
      <trkpt lat="51.23301258772" lon="4.48432404371">
        <ele>0</ele>
        <time>2020-08-01T16:37:49Z</time>
      </trkpt>
      <trkpt lat="51.232640096084" lon="4.483646283276">
        <ele>0</ele>
        <time>2020-08-01T16:38:04Z</time>
      </trkpt>
      <trkpt lat="51.232266682439" lon="4.483035242766">
        <ele>0</ele>
        <time>2020-08-01T16:38:21Z</time>
      </trkpt>
      <trkpt lat="51.232036599284" lon="4.482244326682">
        <ele>0</ele>
        <time>2020-08-01T16:38:38Z</time>
      </trkpt>
      <trkpt lat="51.231913888268" lon="4.481372525263">
        <ele>0</ele>
        <time>2020-08-01T16:38:53Z</time>
      </trkpt>
      <trkpt lat="51.2318407981" lon="4.480449007521">
        <ele>0.2</ele>
        <time>2020-08-01T16:39:07Z</time>
      </trkpt>
      <trkpt lat="51.231812634916" lon="4.479550467841">
        <ele>1.2</ele>
        <time>2020-08-01T16:39:21Z</time>
      </trkpt>
      <trkpt lat="51.231849431457" lon="4.479160458034">
        <ele>3.4</ele>
        <time>2020-08-01T16:39:29Z</time>
      </trkpt>
      <trkpt lat="51.232326613024" lon="4.478824008568">
        <ele>5.6</ele>
        <time>2020-08-01T16:39:49Z</time>
      </trkpt>
      <trkpt lat="51.232154784074" lon="4.478039630366">
        <ele>0</ele>
        <time>2020-08-01T16:40:08Z</time>
      </trkpt>
      <trkpt lat="51.231838954082" lon="4.477285007909">
        <ele>0.6</ele>
        <time>2020-08-01T16:40:24Z</time>
      </trkpt>
      <trkpt lat="51.23154072608" lon="4.476525859226">
        <ele>0</ele>
        <time>2020-08-01T16:40:43Z</time>
      </trkpt>
      <trkpt lat="51.231218274387" lon="4.475781881782">
        <ele>0</ele>
        <time>2020-08-01T16:40:59Z</time>
      </trkpt>
      <trkpt lat="51.230882579292" lon="4.475044274582">
        <ele>0</ele>
        <time>2020-08-01T16:41:15Z</time>
      </trkpt>
      <trkpt lat="51.230587201136" lon="4.47428923303">
        <ele>0</ele>
        <time>2020-08-01T16:41:30Z</time>
      </trkpt>
      <trkpt lat="51.230252763326" lon="4.47356503687">
        <ele>0</ele>
        <time>2020-08-01T16:41:44Z</time>
      </trkpt>
      <trkpt lat="51.229926623597" lon="4.472871183188">
        <ele>0</ele>
        <time>2020-08-01T16:41:59Z</time>
      </trkpt>
      <trkpt lat="51.229621857713" lon="4.472125529364">
        <ele>0</ele>
        <time>2020-08-01T16:42:14Z</time>
      </trkpt>
      <trkpt lat="51.22932538991" lon="4.471381300463">
        <ele>0</ele>
        <time>2020-08-01T16:42:31Z</time>
      </trkpt>
      <trkpt lat="51.228976199956" lon="4.470691134817">
        <ele>0</ele>
        <time>2020-08-01T16:42:47Z</time>
      </trkpt>
      <trkpt lat="51.228754917796" lon="4.470175480329">
        <ele>0</ele>
        <time>2020-08-01T16:42:59Z</time>
      </trkpt>
      <trkpt lat="51.228726419336" lon="4.470075484262">
        <ele>0</ele>
        <time>2020-08-01T16:43:09Z</time>
      </trkpt>
      <trkpt lat="51.228428778067" lon="4.469375260336">
        <ele>0</ele>
        <time>2020-08-01T16:43:28Z</time>
      </trkpt>
      <trkpt lat="51.228168603891" lon="4.468620721698">
        <ele>0</ele>
        <time>2020-08-01T16:43:46Z</time>
      </trkpt>
      <trkpt lat="51.227967857386" lon="4.467801223335">
        <ele>0</ele>
        <time>2020-08-01T16:44:03Z</time>
      </trkpt>
      <trkpt lat="51.227718076766" lon="4.466994297822">
        <ele>0</ele>
        <time>2020-08-01T16:44:19Z</time>
      </trkpt>
      <trkpt lat="51.22777809117" lon="4.466861947621">
        <ele>0</ele>
        <time>2020-08-01T16:44:22Z</time>
      </trkpt>
      <trkpt lat="51.227949249568" lon="4.466087124785">
        <ele>0</ele>
        <time>2020-08-01T16:44:39Z</time>
      </trkpt>
      <trkpt lat="51.227890911544" lon="4.46518816601">
        <ele>0</ele>
        <time>2020-08-01T16:45:00Z</time>
      </trkpt>
      <trkpt lat="51.227832657339" lon="4.464281579706">
        <ele>0</ele>
        <time>2020-08-01T16:45:15Z</time>
      </trkpt>
      <trkpt lat="51.227791166934" lon="4.463391589564">
        <ele>0</ele>
        <time>2020-08-01T16:45:30Z</time>
      </trkpt>
      <trkpt lat="51.227787730355" lon="4.463204840832">
        <ele>0</ele>
        <time>2020-08-01T16:45:33Z</time>
      </trkpt>
      <trkpt lat="51.227790580201" lon="4.462346450453">
        <ele>0</ele>
        <time>2020-08-01T16:45:48Z</time>
      </trkpt>
      <trkpt lat="51.227760070085" lon="4.461470541903">
        <ele>0</ele>
        <time>2020-08-01T16:46:05Z</time>
      </trkpt>
      <trkpt lat="51.227805583802" lon="4.460606535651">
        <ele>2</ele>
        <time>2020-08-01T16:46:23Z</time>
      </trkpt>
      <trkpt lat="51.228272204175" lon="4.460132623025">
        <ele>0</ele>
        <time>2020-08-01T16:46:43Z</time>
      </trkpt>
      <trkpt lat="51.228480745847" lon="4.459353357782">
        <ele>0</ele>
        <time>2020-08-01T16:47:02Z</time>
      </trkpt>
      <trkpt lat="51.228518967311" lon="4.458500415638">
        <ele>0</ele>
        <time>2020-08-01T16:47:22Z</time>
      </trkpt>
      <trkpt lat="51.22847797982" lon="4.457629200952">
        <ele>0</ele>
        <time>2020-08-01T16:47:42Z</time>
      </trkpt>
      <trkpt lat="51.228466580436" lon="4.457302642128">
        <ele>0</ele>
        <time>2020-08-01T16:47:49Z</time>
      </trkpt>
      <trkpt lat="51.228521817157" lon="4.457183032415">
        <ele>0</ele>
        <time>2020-08-01T16:47:53Z</time>
      </trkpt>
      <trkpt lat="51.22896832097" lon="4.456840128886">
        <ele>0</ele>
        <time>2020-08-01T16:48:11Z</time>
      </trkpt>
      <trkpt lat="51.229514653212" lon="4.456662348787">
        <ele>1</ele>
        <time>2020-08-01T16:48:28Z</time>
      </trkpt>
      <trkpt lat="51.230054866667" lon="4.456580206167">
        <ele>8.6</ele>
        <time>2020-08-01T16:48:43Z</time>
      </trkpt>
      <trkpt lat="51.230584938023" lon="4.456377699463">
        <ele>7.2</ele>
        <time>2020-08-01T16:48:58Z</time>
      </trkpt>
      <trkpt lat="51.231013839846" lon="4.455913090746">
        <ele>0</ele>
        <time>2020-08-01T16:49:18Z</time>
      </trkpt>
      <trkpt lat="51.231042254487" lon="4.455867577029">
        <ele>1.6</ele>
        <time>2020-08-01T16:49:22Z</time>
      </trkpt>
      <trkpt lat="51.231168150625" lon="4.455907055778">
        <ele>0.6</ele>
        <time>2020-08-01T16:49:27Z</time>
      </trkpt>
      <trkpt lat="51.231232691255" lon="4.455847292831">
        <ele>0</ele>
        <time>2020-08-01T16:49:30Z</time>
      </trkpt>
      <trkpt lat="51.231263788104" lon="4.455829355565">
        <ele>0</ele>
        <time>2020-08-01T16:49:32Z</time>
      </trkpt>
      <trkpt lat="51.231283569388" lon="4.455774873215">
        <ele>0</ele>
        <time>2020-08-01T16:49:34Z</time>
      </trkpt>
      <trkpt lat="51.231160355458" lon="4.454926624935">
        <ele>0</ele>
        <time>2020-08-01T16:49:50Z</time>
      </trkpt>
      <trkpt lat="51.231004703575" lon="4.454250792338">
        <ele>0</ele>
        <time>2020-08-01T16:50:03Z</time>
      </trkpt>
      <trkpt lat="51.230832958444" lon="4.453405561542">
        <ele>0</ele>
        <time>2020-08-01T16:50:23Z</time>
      </trkpt>
      <trkpt lat="51.230737572422" lon="4.45255496633">
        <ele>0</ele>
        <time>2020-08-01T16:50:39Z</time>
      </trkpt>
      <trkpt lat="51.230539508125" lon="4.451709567896">
        <ele>0</ele>
        <time>2020-08-01T16:50:56Z</time>
      </trkpt>
      <trkpt lat="51.230413192892" lon="4.450856458114">
        <ele>0</ele>
        <time>2020-08-01T16:51:12Z</time>
      </trkpt>
      <trkpt lat="51.229859233121" lon="4.450884118384">
        <ele>0</ele>
        <time>2020-08-01T16:51:27Z</time>
      </trkpt>
      <trkpt lat="51.229667539068" lon="4.450887052049">
        <ele>0</ele>
        <time>2020-08-01T16:51:33Z</time>
      </trkpt>
      <trkpt lat="51.22951984999" lon="4.45002027977">
        <ele>0</ele>
        <time>2020-08-01T16:51:48Z</time>
      </trkpt>
      <trkpt lat="51.2294016652" lon="4.449172702042">
        <ele>0</ele>
        <time>2020-08-01T16:52:02Z</time>
      </trkpt>
      <trkpt lat="51.229059013128" lon="4.448503072051">
        <ele>0</ele>
        <time>2020-08-01T16:52:19Z</time>
      </trkpt>
      <trkpt lat="51.228958430328" lon="4.44843190972">
        <ele>0</ele>
        <time>2020-08-01T16:52:25Z</time>
      </trkpt>
      <trkpt lat="51.228923561624" lon="4.448671464422">
        <ele>0</ele>
        <time>2020-08-01T16:53:05Z</time>
      </trkpt>
      <trkpt lat="51.228521900976" lon="4.449245876029">
        <ele>0</ele>
        <time>2020-08-01T16:53:27Z</time>
      </trkpt>
      <trkpt lat="51.228519134949" lon="4.449252916825">
        <ele>0</ele>
        <time>2020-08-01T16:53:28Z</time>
      </trkpt>
    </trkseg>
  </trk>
</gpx>